Time;durP1;ratioP1;P1;durP2;ratioP2;P2;SDS_P1;SDS_P2;PMS_P1;PMS_P2;Temp;Humidity;BMP_temperature;BMP_pressure;BME280_temperature;BME280_humidity;BME280_pressure;Samples;Min_cycle;Max_cycle;Signal;HPM_P1;HPM_P2
2023/02/16 00:01:29;;;;;;;19.35;9.68;;;4.30;59.40;;;-0.78;100.00;96560.19;4979061;28;20224;-51
2023/02/16 00:03:58;;;;;;;18.60;8.93;;;4.30;59.40;;;-0.84;100.00;96559.06;4991549;28;20033;-50
2023/02/16 00:06:28;;;;;;;17.70;9.95;;;4.30;59.30;;;-0.89;100.00;96563.16;5000306;28;20547;-53
2023/02/16 00:08:57;;;;;;;15.27;9.32;;;4.20;59.20;;;-0.97;100.00;96561.41;4995694;28;20040;-52
2023/02/16 00:14:27;;;;;;;17.83;10.10;;;4.10;59.20;;;-1.00;100.00;96561.75;4994227;28;20040;-50
2023/02/16 00:16:56;;;;;;;17.30;9.77;;;4.10;59.20;;;-0.96;100.00;96558.59;4986941;28;20116;-50
2023/02/16 00:19:40;;;;;;;18.70;8.95;;;4.10;59.30;;;-0.98;100.00;96571.03;4990402;28;20491;-50
2023/02/16 00:22:09;;;;;;;20.52;10.48;;;4.10;59.40;;;-0.93;100.00;96573.97;5000813;28;20091;-52
2023/02/16 00:24:36;;;;;;;18.52;9.57;;;4.00;59.30;;;-0.91;100.00;96579.00;4970999;28;20151;-51
2023/02/16 00:27:18;;;;;;;15.68;9.07;;;4.00;59.40;;;-0.98;100.00;96568.41;5005295;28;20025;-50
2023/02/16 00:29:44;;;;;;;18.85;9.63;;;4.00;59.40;;;-1.01;100.00;96567.94;4990242;28;20079;-50
2023/02/16 00:32:13;;;;;;;15.50;8.60;;;4.00;59.30;;;-1.09;100.00;96568.78;5002788;28;20029;-50
2023/02/16 00:34:42;;;;;;;17.75;9.25;;;3.90;59.30;;;-1.15;100.00;96566.03;4997248;28;20021;-50
2023/02/16 00:37:12;;;;;;;17.83;10.13;;;3.90;59.30;;;-1.17;100.00;96580.06;4972035;28;20129;-52
2023/02/16 00:39:42;;;;;;;18.40;10.32;;;3.90;59.40;;;-1.17;100.00;96572.22;4998688;28;20032;-50
2023/02/16 00:42:30;;;;;;;21.00;11.00;;;3.90;59.50;;;-1.08;100.00;96580.06;4988884;28;20061;-51
2023/02/16 00:44:58;;;;;;;19.85;9.93;;;3.90;59.60;;;-1.06;100.00;96584.13;4995986;28;20049;-55
2023/02/16 00:47:42;;;;;;;19.83;10.18;;;3.80;59.60;;;-1.05;100.00;96590.19;4990950;28;20037;-51
2023/02/16 00:50:31;;;;;;;20.42;10.05;;;3.90;59.80;;;-1.07;100.00;96586.91;4990890;28;20029;-51
2023/02/16 00:52:59;;;;;;;18.30;10.15;;;3.80;59.70;;;-1.09;100.00;96594.94;4989170;28;20029;-53
2023/02/16 00:55:32;;;;;;;20.73;10.60;;;3.90;59.70;;;-1.16;100.00;96588.72;4992981;28;20021;-51
2023/02/16 00:58:23;;;;;;;17.05;9.18;;;3.80;59.70;;;-1.21;100.00;96591.84;4975697;28;20392;-51
2023/02/16 01:00:57;;;;;;;18.98;10.32;;;3.80;59.70;;;-1.24;100.00;96597.41;4990672;28;20029;-52
2023/02/16 01:03:27;;;;;;;18.10;9.98;;;3.80;59.60;;;-1.31;100.00;96596.44;4976112;28;20029;-51
2023/02/16 01:11:26;;;;;;;18.20;10.13;;;3.70;59.50;;;-1.50;100.00;96587.16;4993514;28;20387;-50
2023/02/16 01:14:01;;;;;;;20.70;10.63;;;3.70;59.60;;;-1.56;100.00;96594.84;4994407;28;20064;-51
2023/02/16 01:16:39;;;;;;;18.02;9.50;;;3.60;59.60;;;-1.46;100.00;96588.44;4993626;28;20025;-53
2023/02/16 01:19:11;;;;;;;20.65;10.55;;;3.60;59.70;;;-1.43;100.00;96592.53;4999651;28;20097;-50
2023/02/16 01:21:40;;;;;;;17.83;10.15;;;3.60;59.70;;;-1.44;100.00;96591.72;4992717;28;20049;-54
2023/02/16 01:24:09;;;;;;;21.95;9.48;;;3.60;59.80;;;-1.48;100.00;96593.00;4997690;28;20442;-50
2023/02/16 01:26:47;;;;;;;20.63;10.77;;;3.60;59.80;;;-1.48;100.00;96586.97;4990017;28;20018;-56
2023/02/16 01:29:19;;;;;;;20.58;10.68;;;3.50;59.80;;;-1.55;100.00;96589.44;5009869;28;20047;-51
2023/02/16 01:31:45;;;;;;;18.45;10.10;;;3.50;59.90;;;-1.56;100.00;96587.81;4987113;28;20017;-51
2023/02/16 01:34:13;;;;;;;21.13;11.25;;;3.50;59.80;;;-1.57;100.00;96585.34;4988865;28;20124;-51
2023/02/16 01:36:47;;;;;;;21.48;11.00;;;3.50;59.90;;;-1.55;100.00;96583.38;4992389;28;20472;-50
2023/02/16 01:39:19;;;;;;;21.48;12.05;;;3.50;60.10;;;-1.53;100.00;96579.63;4987857;28;20034;-52
2023/02/16 01:42:08;;;;;;;23.90;11.48;;;3.40;60.00;;;-1.55;100.00;96572.94;4953429;28;20439;-50
2023/02/16 01:45:01;;;;;;;29.15;11.68;;;3.40;60.20;;;-1.55;100.00;96572.94;4981202;28;20030;-52
2023/02/16 01:48:01;;;;;;;25.52;11.85;;;3.40;60.20;;;-1.52;100.00;96580.44;4989583;28;20124;-51
2023/02/16 01:51:11;;;;;;;21.60;11.35;;;3.40;60.40;;;-1.59;100.00;96574.25;4971964;28;20384;-51
2023/02/16 01:53:53;;;;;;;22.13;11.13;;;3.40;60.40;;;-1.51;100.00;96575.03;4995843;28;20072;-51
2023/02/16 01:56:58;;;;;;;19.48;10.82;;;3.40;60.50;;;-1.42;100.00;96576.66;4992550;28;20033;-50
2023/02/16 02:00:03;;;;;;;20.48;11.02;;;3.50;60.60;;;-1.45;100.00;96573.56;4974219;28;20033;-50
2023/02/16 02:02:40;;;;;;;22.00;12.13;;;3.50;60.50;;;-1.46;100.00;96572.75;4989235;28;20029;-55
2023/02/16 02:05:34;;;;;;;19.35;10.60;;;3.50;60.50;;;-1.50;100.00;96574.09;4998550;28;20533;-49
2023/02/16 02:08:39;;;;;;;21.90;11.68;;;3.50;60.60;;;-1.56;100.00;96577.34;4992703;28;20040;-50
2023/02/16 02:11:27;;;;;;;17.67;9.93;;;3.40;60.50;;;-1.56;100.00;96571.31;4979697;28;20032;-49
2023/02/16 02:14:27;;;;;;;21.02;10.95;;;3.40;60.50;;;-1.63;100.00;96571.13;4992498;28;20110;-51
2023/02/16 02:17:05;;;;;;;27.25;12.05;;;3.40;60.60;;;-1.68;100.00;96573.44;4992098;28;20029;-50
2023/02/16 02:20:03;;;;;;;21.33;11.27;;;3.40;60.50;;;-1.61;100.00;96576.19;4976463;28;20459;-50
2023/02/16 02:23:32;;;;;;;21.63;11.13;;;3.40;60.60;;;-1.60;100.00;96578.63;5000729;28;20052;-55
2023/02/16 02:26:28;;;;;;;26.60;12.65;;;3.40;60.70;;;-1.67;100.00;96575.06;5009691;28;20462;-50
2023/02/16 02:29:21;;;;;;;24.70;12.00;;;3.40;60.60;;;-1.70;100.00;96575.38;4988992;28;20052;-54
2023/02/16 02:32:29;;;;;;;25.00;11.93;;;3.30;60.70;;;-1.72;100.00;96579.97;4993621;28;20033;-50
2023/02/16 02:35:24;;;;;;;30.95;13.30;;;3.30;60.60;;;-1.74;100.00;96568.84;5003338;28;20403;-50
2023/02/16 02:38:28;;;;;;;25.83;13.07;;;3.20;60.60;;;-1.73;100.00;96573.09;4992014;28;20025;-50
2023/02/16 02:42:16;;;;;;;24.55;13.00;;;3.20;60.80;;;-1.69;100.00;96574.41;4996977;28;20408;-50
2023/02/16 02:44:25;;;;;;;23.40;12.52;;;3.30;60.90;;;-1.75;100.00;96572.47;4996273;28;20055;-52
2023/02/16 02:47:01;;;;;;;22.60;12.07;;;3.20;60.70;;;-1.85;100.00;96564.75;4973195;28;20508;-50
2023/02/16 02:49:27;;;;;;;24.70;13.20;;;3.20;60.80;;;-1.89;100.00;96560.84;4983588;23;20057;-52
2023/02/16 02:51:59;;;;;;;23.13;13.32;;;3.20;60.70;;;-1.89;100.00;96563.47;4967863;28;20038;-49
2023/02/16 03:00:46;;;;;;;24.23;12.55;;;3.10;61.00;;;-1.89;100.00;96550.41;4952836;28;20069;-55
2023/02/16 03:03:37;;;;;;;25.52;13.40;;;3.10;61.10;;;-1.85;100.00;96556.94;4962384;28;20034;-50
2023/02/16 03:06:39;;;;;;;24.70;13.00;;;3.10;61.20;;;-1.81;100.00;96553.03;4953430;28;20026;-49
2023/02/16 03:09:15;;;;;;;24.23;13.18;;;3.10;61.30;;;-1.85;100.00;96551.69;4966841;28;20485;-50
2023/02/16 03:14:49;;;;;;;30.75;14.63;;;3.10;61.90;;;-1.90;100.00;96562.66;4954559;28;20033;-53
2023/02/16 03:31:39;;;;;;;34.65;14.25;;;3.10;61.80;;;-1.87;100.00;96564.13;4963061;28;20038;-50
2023/02/16 03:34:09;;;;;;;26.95;13.30;;;3.10;61.70;;;-1.88;100.00;96560.69;4968575;28;20022;-53
2023/02/16 03:36:42;;;;;;;24.17;13.27;;;3.10;61.60;;;-1.90;100.00;96557.44;4942219;28;20030;-50
2023/02/16 03:39:11;;;;;;;27.13;13.23;;;3.10;61.70;;;-1.91;100.00;96555.81;4968433;28;20118;-51
2023/02/16 03:41:50;;;;;;;24.77;12.38;;;3.10;61.60;;;-1.89;100.00;96560.84;4965466;28;20018;-51
2023/02/16 03:44:17;;;;;;;21.83;12.13;;;3.10;61.80;;;-1.90;100.00;96556.63;4966473;28;20531;-50
2023/02/16 03:46:44;;;;;;;24.13;12.63;;;3.10;61.60;;;-1.93;100.00;96565.59;4968103;28;20030;-49
2023/02/16 03:49:13;;;;;;;21.10;11.43;;;3.10;61.70;;;-1.87;100.00;96556.28;4964395;28;20131;-49
2023/02/16 03:51:39;;;;;;;22.88;11.98;;;3.10;61.80;;;-1.90;100.00;96561.84;4966458;28;20424;-49
2023/02/16 03:54:07;;;;;;;24.42;12.45;;;3.10;61.80;;;-1.92;100.00;96554.16;4923778;28;20053;-54
2023/02/16 03:56:36;;;;;;;24.17;12.23;;;3.10;61.80;;;-1.92;100.00;96558.56;4949405;28;20045;-49
2023/02/16 03:59:05;;;;;;;22.55;11.15;;;3.10;61.80;;;-1.89;100.00;96553.00;4964431;28;20026;-52
2023/02/16 04:01:34;;;;;;;19.35;10.60;;;3.10;61.90;;;-1.88;100.00;96555.47;4955558;28;20034;-50
2023/02/16 04:03:59;;;;;;;22.63;11.32;;;3.10;61.90;;;-1.86;100.00;96561.34;4956884;28;20481;-49
2023/02/16 04:06:31;;;;;;;21.65;10.90;;;3.10;61.80;;;-1.93;100.00;96557.75;4952718;28;20033;-53
2023/02/16 04:08:57;;;;;;;20.20;9.75;;;3.10;61.90;;;-1.92;100.00;96569.00;4962374;28;20062;-54
2023/02/16 04:14:10;;;;;;;21.88;10.70;;;3.10;61.90;;;-1.98;100.00;96573.06;4951273;28;20100;-49
2023/02/16 04:16:35;;;;;;;18.05;10.15;;;3.10;61.90;;;-1.96;100.00;96575.53;4964650;28;20022;-53
2023/02/16 04:19:07;;;;;;;20.65;10.60;;;3.10;61.90;;;-1.93;100.00;96572.59;4940348;28;20070;-52
2023/02/16 04:21:42;;;;;;;21.37;10.37;;;3.10;61.90;;;-1.90;100.00;96575.72;4955013;28;20102;-51
2023/02/16 04:24:08;;;;;;;20.75;10.05;;;3.10;61.90;;;-1.94;100.00;96578.81;4952588;28;20042;-53
2023/02/16 04:26:37;;;;;;;21.48;9.95;;;3.10;61.90;;;-1.95;100.00;96582.38;4943808;28;20117;-53
2023/02/16 04:29:03;;;;;;;20.90;10.13;;;3.10;61.90;;;-2.00;100.00;96576.84;4962442;28;20038;-56
2023/02/16 04:31:37;;;;;;;23.17;11.38;;;3.10;61.80;;;-2.02;100.00;96582.22;4926323;28;20089;-53
2023/02/16 04:34:06;;;;;;;20.95;9.45;;;3.00;61.80;;;-2.06;100.00;96580.09;4948756;28;20035;-48
2023/02/16 04:36:33;;;;;;;19.17;10.32;;;3.00;61.70;;;-2.14;100.00;96579.09;4952507;28;20042;-51
2023/02/16 04:39:03;;;;;;;20.05;10.90;;;3.00;61.70;;;-2.05;100.00;96585.16;4952401;28;20030;-54
2023/02/16 04:41:30;;;;;;;19.50;10.30;;;3.00;61.80;;;-2.10;100.00;96583.03;4956810;28;20070;-51
2023/02/16 04:43:56;;;;;;;17.85;9.40;;;3.00;61.70;;;-2.08;100.00;96579.44;4934991;28;20169;-52
2023/02/16 04:46:22;;;;;;;22.10;10.10;;;3.00;61.80;;;-2.10;100.00;96574.38;4944492;28;20018;-52
2023/02/16 04:48:56;;;;;;;15.75;9.13;;;2.90;61.80;;;-2.12;100.00;96577.16;4953175;28;20050;-51
2023/02/16 04:51:28;;;;;;;21.65;10.43;;;3.00;62.00;;;-2.15;100.00;96577.47;4938760;28;20513;-48
2023/02/16 04:53:54;;;;;;;21.55;10.55;;;2.90;61.90;;;-2.13;100.00;96575.53;4951921;28;20109;-54
2023/02/16 04:56:20;;;;;;;19.17;10.32;;;2.90;61.90;;;-2.11;100.00;96578.78;4943846;28;20101;-52
2023/02/16 04:58:48;;;;;;;22.27;10.60;;;2.90;62.00;;;-2.15;100.00;96577.47;4939043;28;20033;-50
2023/02/16 05:01:22;;;;;;;18.98;10.95;;;2.90;62.00;;;-2.10;100.00;96576.97;4946901;28;20029;-50
2023/02/16 05:03:54;;;;;;;18.48;9.63;;;2.90;62.20;;;-2.08;100.00;96585.47;4947409;28;20026;-52
2023/02/16 05:06:21;;;;;;;19.15;10.05;;;2.90;62.30;;;-2.05;100.00;96581.72;4956301;28;20030;-50
2023/02/16 05:08:48;;;;;;;20.48;10.90;;;2.90;62.20;;;-2.04;100.00;96583.34;4956421;28;20034;-49
2023/02/16 05:16:45;;;;;;;19.42;9.68;;;2.90;62.20;;;-2.15;100.00;96580.09;4951928;28;20058;-52
2023/02/16 05:19:12;;;;;;;20.95;9.52;;;2.90;62.20;;;-2.18;100.00;96585.63;4948086;28;20048;-53
2023/02/16 05:21:38;;;;;;;20.77;9.45;;;2.90;62.30;;;-2.14;100.00;96580.91;4951169;28;20019;-51
2023/02/16 05:24:13;;;;;;;16.75;9.18;;;2.90;62.30;;;-2.18;100.00;96575.19;4929582;28;20445;-49
2023/02/16 05:26:39;;;;;;;17.45;8.85;;;2.90;62.30;;;-2.16;100.00;96588.09;4942934;28;20046;-49
2023/02/16 05:29:08;;;;;;;20.48;9.73;;;2.90;62.30;;;-2.18;100.00;96590.03;4955342;28;20109;-49
2023/02/16 05:31:34;;;;;;;16.77;9.00;;;2.90;62.30;;;-2.19;100.00;96580.56;4960303;28;20050;-52
2023/02/16 05:34:00;;;;;;;14.60;8.70;;;2.80;62.30;;;-2.15;100.00;96581.88;4971319;28;20372;-48
2023/02/16 05:36:28;;;;;;;16.35;8.95;;;2.90;62.30;;;-2.15;100.00;96587.09;4970021;28;20692;-53
2023/02/16 05:38:56;;;;;;;18.30;8.30;;;2.90;62.30;;;-2.17;100.00;96587.25;4970812;28;20022;-51
2023/02/16 05:41:28;;;;;;;17.63;9.00;;;2.90;62.30;;;-2.20;100.00;96586.75;4949703;28;20030;-50
2023/02/16 05:44:01;;;;;;;19.35;8.90;;;2.90;62.40;;;-2.16;100.00;96586.28;4967789;28;20551;-49
2023/02/16 05:46:31;;;;;;;15.55;7.65;;;2.80;62.40;;;-2.10;100.00;96592.63;4938990;28;20034;-53
2023/02/16 05:48:59;;;;;;;19.98;8.73;;;2.90;62.40;;;-2.17;100.00;96589.06;4961223;28;20516;-48
2023/02/16 05:51:29;;;;;;;16.77;8.38;;;2.80;62.40;;;-2.15;100.00;96603.56;4958132;28;20504;-48
2023/02/16 05:53:55;;;;;;;18.65;9.13;;;2.90;62.50;;;-2.16;100.00;96590.69;4959773;28;20584;-53
2023/02/16 05:56:22;;;;;;;13.63;7.72;;;2.90;62.40;;;-2.18;100.00;96601.28;4954066;28;20117;-49
2023/02/16 05:59:00;;;;;;;15.98;7.50;;;2.90;62.40;;;-2.10;100.00;96603.09;4937099;28;20022;-48
2023/02/16 06:01:29;;;;;;;18.52;9.77;;;2.90;62.60;;;-2.05;100.00;96605.22;4950499;28;20069;-52
2023/02/16 06:03:57;;;;;;;12.60;7.13;;;2.90;62.60;;;-2.05;100.00;96605.22;4961421;28;20050;-52
2023/02/16 06:06:26;;;;;;;13.60;7.57;;;2.90;62.50;;;-2.12;100.00;96610.28;4934990;28;20037;-49
2023/02/16 06:08:52;;;;;;;14.90;7.75;;;2.90;62.50;;;-2.13;100.00;96612.09;4947845;28;20027;-53
2023/02/16 06:14:16;;;;;;;15.85;7.90;;;2.90;62.40;;;-2.10;100.00;96608.31;4934008;28;20038;-48
2023/02/16 06:16:50;;;;;;;12.80;7.57;;;2.90;62.60;;;-2.04;100.00;96610.28;4893432;28;20022;-53
2023/02/16 06:19:19;;;;;;;13.63;7.18;;;2.90;62.60;;;-2.03;100.00;96617.16;4956377;28;20509;-50
2023/02/16 06:21:48;;;;;;;11.98;7.15;;;2.90;62.60;;;-2.02;100.00;96624.00;4969088;28;20430;-49
2023/02/16 06:24:14;;;;;;;13.20;7.28;;;2.90;62.50;;;-2.02;100.00;96621.38;4972595;28;20098;-48
2023/02/16 06:26:41;;;;;;;15.73;7.47;;;3.00;62.50;;;-2.02;100.00;96626.63;4957620;28;20503;-47
2023/02/16 06:29:09;;;;;;;11.50;6.75;;;3.00;62.40;;;-1.96;100.00;96641.66;4983314;28;20022;-47
2023/02/16 06:31:35;;;;;;;17.30;7.25;;;3.00;62.40;;;-1.88;100.00;96640.81;4977596;28;20018;-48
2023/02/16 06:34:02;;;;;;;11.40;6.55;;;3.10;62.50;;;-1.90;100.00;96643.63;4972960;28;20033;-48
2023/02/16 06:36:29;;;;;;;19.60;6.78;;;3.10;62.50;;;-1.90;100.00;96640.19;4945015;28;20053;-48
2023/02/16 06:38:54;;;;;;;14.98;6.88;;;3.10;62.40;;;-1.93;100.00;96638.72;4953021;28;20050;-49
2023/02/16 06:41:39;;;;;;;15.07;7.78;;;3.10;62.30;;;-1.94;100.00;96638.88;4978634;28;20548;-48
2023/02/16 06:44:14;;;;;;;17.33;7.78;;;3.10;62.20;;;-2.00;100.00;96636.91;4989416;28;20026;-48
2023/02/16 06:46:43;;;;;;;13.70;6.40;;;3.20;62.20;;;-2.00;100.00;96635.13;4946566;28;20390;-52
2023/02/16 06:49:22;;;;;;;19.63;7.65;;;3.20;62.20;;;-1.93;100.00;96640.50;4982867;28;20099;-48
2023/02/16 06:51:51;;;;;;;16.25;7.38;;;3.20;62.20;;;-1.95;100.00;96632.81;4967935;28;20028;-47
2023/02/16 06:54:20;;;;;;;13.65;7.40;;;3.20;62.10;;;-1.91;100.00;96636.78;4973733;28;20037;-48
2023/02/16 06:56:46;;;;;;;15.52;6.63;;;3.20;62.20;;;-1.86;100.00;96639.69;4964954;28;20076;-49
2023/02/16 06:59:12;;;;;;;15.25;7.05;;;3.20;62.10;;;-1.83;100.00;96641.16;4969503;28;20523;-48
2023/02/16 07:01:40;;;;;;;14.57;7.75;;;3.30;62.20;;;-1.79;100.00;96641.66;4971607;28;20096;-47
2023/02/16 07:04:07;;;;;;;14.13;7.45;;;3.30;62.20;;;-1.82;100.00;96647.22;4969019;28;20440;-47
2023/02/16 07:06:36;;;;;;;12.40;7.38;;;3.30;62.20;;;-1.79;100.00;96644.28;4959688;28;20105;-52
2023/02/16 07:09:03;;;;;;;16.98;7.22;;;3.40;62.20;;;-1.74;100.00;96652.47;4982649;28;20036;-51
2023/02/16 07:11:29;;;;;;;12.90;6.00;;;3.40;62.20;;;-1.66;100.00;96649.84;4977584;28;20033;-50
2023/02/16 07:13:55;;;;;;;12.88;6.90;;;3.50;62.20;;;-1.65;100.00;96654.91;4984968;28;20026;-48
2023/02/16 07:16:24;;;;;;;12.52;7.20;;;3.50;62.10;;;-1.68;100.00;96652.63;4989917;28;20055;-51
2023/02/16 07:18:52;;;;;;;16.10;8.18;;;3.50;62.10;;;-1.66;100.00;96653.28;4959768;28;20021;-48
2023/02/16 07:21:23;;;;;;;15.35;7.60;;;3.60;62.20;;;-1.56;100.00;96666.19;4968427;28;20442;-49
2023/02/16 07:23:49;;;;;;;13.00;7.05;;;3.60;62.20;;;-1.50;100.00;96664.75;4968992;28;20062;-48
2023/02/16 07:26:15;;;;;;;13.50;7.43;;;3.60;62.20;;;-1.42;100.00;96662.13;4980042;28;20072;-50
2023/02/16 07:28:41;;;;;;;11.98;6.68;;;3.70;62.20;;;-1.39;100.00;96661.78;4967627;28;20463;-48
2023/02/16 07:31:15;;;;;;;11.80;7.05;;;3.70;62.10;;;-1.36;100.00;96660.66;4973487;28;20053;-51
2023/02/16 07:33:42;;;;;;;13.38;7.05;;;3.80;62.30;;;-1.29;100.00;96666.84;4988415;28;20514;-49
2023/02/16 07:36:11;;;;;;;16.17;8.98;;;3.90;62.30;;;-1.21;100.00;96666.84;4985319;28;20499;-49
2023/02/16 07:38:40;;;;;;;10.65;6.20;;;3.90;62.90;;;-1.19;100.00;96657.88;4958385;28;20068;-47
2023/02/16 07:41:07;;;;;;;15.35;7.63;;;4.00;62.20;;;-1.17;100.00;96655.09;4954442;28;20117;-50
2023/02/16 07:43:43;;;;;;;12.52;6.65;;;4.00;62.10;;;-1.11;100.00;96662.25;4964381;28;20038;-50
2023/02/16 07:46:10;;;;;;;14.32;7.38;;;4.10;62.20;;;-1.01;100.00;96662.09;4946602;28;20088;-49
2023/02/16 07:48:38;;;;;;;11.90;7.13;;;4.20;62.10;;;-0.82;100.00;96671.38;4961058;28;20448;-53
2023/02/16 07:51:05;;;;;;;12.23;6.85;;;4.40;62.20;;;-0.56;100.00;96669.38;4958303;28;20027;-52
2023/02/16 07:53:34;;;;;;;17.55;6.63;;;4.70;62.10;;;-0.27;100.00;96673.19;4979294;28;20026;-50
2023/02/16 07:56:02;;;;;;;13.90;7.63;;;5.00;62.00;;;-0.04;100.00;96673.25;4984121;28;20029;-53
2023/02/16 07:58:28;;;;;;;12.15;6.68;;;5.30;61.70;;;0.08;98.93;96681.53;4978137;28;20028;-50
2023/02/16 08:01:10;;;;;;;10.88;6.47;;;5.50;61.50;;;0.23;99.22;96669.34;4983187;28;20033;-50
2023/02/16 08:03:38;;;;;;;14.82;6.30;;;5.70;61.30;;;0.30;98.05;96672.91;4977078;28;20061;-49
2023/02/16 08:06:07;;;;;;;8.07;5.30;;;5.80;61.10;;;0.41;97.20;96676.94;4964062;28;20030;-49
2023/02/16 08:08:35;;;;;;;27.42;15.07;;;5.80;61.00;;;0.48;96.86;96679.69;4967736;28;20100;-49
2023/02/16 08:11:22;;;;;;;22.70;12.05;;;5.90;61.00;;;0.58;96.90;96675.81;4966661;28;20057;-52
2023/02/16 08:14:00;;;;;;;14.25;7.60;;;6.00;60.90;;;0.71;96.66;96677.03;4925294;28;20393;-53
2023/02/16 08:16:28;;;;;;;15.43;8.38;;;6.20;60.80;;;0.88;97.30;96678.56;4967901;28;20038;-55
2023/02/16 08:19:02;;;;;;;14.27;8.02;;;6.30;60.60;;;1.05;96.94;96671.34;4969905;28;20026;-53
2023/02/16 08:21:33;;;;;;;12.63;7.55;;;6.60;60.50;;;1.30;96.66;96666.69;4968153;28;20029;-51
2023/02/16 08:24:12;;;;;;;12.43;7.25;;;6.90;60.30;;;1.71;96.39;96676.75;4969524;28;20387;-51
2023/02/16 08:26:43;;;;;;;13.63;8.40;;;7.40;59.90;;;2.18;95.40;96671.06;4952811;28;20077;-52
2023/02/16 08:29:12;;;;;;;11.80;7.70;;;7.90;59.70;;;2.66;92.29;96675.78;4964284;28;20026;-53
2023/02/16 08:31:41;;;;;;;12.35;7.50;;;8.40;59.40;;;3.13;90.35;96674.38;4967929;28;20110;-52
2023/02/16 08:34:08;;;;;;;10.55;6.63;;;9.00;59.10;;;3.54;85.08;96671.00;4966763;28;20018;-52
2023/02/16 08:36:38;;;;;;;13.30;7.03;;;9.50;58.60;;;3.96;82.25;96666.59;4951947;28;20041;-49
2023/02/16 08:39:16;;;;;;;9.20;5.65;;;10.00;58.20;;;4.39;78.50;96667.97;4967163;28;20022;-56
2023/02/16 08:41:45;;;;;;;7.72;5.22;;;10.50;57.60;;;4.78;76.13;96678.78;4962227;28;20014;-54
2023/02/16 08:44:14;;;;;;;8.10;5.05;;;10.90;57.20;;;5.05;72.86;96685.72;4963161;28;20760;-58
2023/02/16 08:46:45;;;;;;;8.82;5.18;;;11.40;56.60;;;5.33;70.89;96682.88;4949294;28;20073;-55
2023/02/16 08:49:11;;;;;;;9.27;5.25;;;11.80;56.00;;;5.62;68.51;96670.25;4981601;23;20054;-50
2023/02/16 08:51:45;;;;;;;7.05;5.05;;;12.20;55.50;;;5.97;68.91;96677.91;5002887;28;20032;-51
2023/02/16 08:54:25;;;;;;;9.27;4.72;;;12.60;54.70;;;6.34;65.78;96680.81;4999285;28;20025;-49
2023/02/16 08:56:51;;;;;;;8.55;5.25;;;13.10;54.20;;;6.66;63.91;96679.03;5003725;28;20098;-54
2023/02/16 08:59:21;;;;;;;6.72;4.65;;;13.50;53.70;;;6.88;63.18;96675.00;4995815;28;20033;-50
2023/02/16 09:01:48;;;;;;;5.95;4.47;;;13.80;52.90;;;7.14;61.81;96684.59;4975026;28;20535;-53
2023/02/16 09:04:18;;;;;;;7.55;5.13;;;14.10;52.40;;;7.41;61.02;96677.25;4978790;28;20042;-50
2023/02/16 09:06:49;;;;;;;8.82;4.60;;;14.50;51.70;;;7.72;60.77;96688.00;4987237;28;20022;-49
2023/02/16 09:09:18;;;;;;;6.75;4.68;;;14.70;51.10;;;7.91;59.67;96689.63;5004569;28;20033;-49
2023/02/16 09:11:45;;;;;;;7.10;5.03;;;15.00;50.60;;;8.18;57.61;96689.31;4987601;28;20026;-50
2023/02/16 09:14:16;;;;;;;7.85;4.90;;;15.20;50.10;;;8.47;57.13;96687.78;4988082;28;20029;-49
2023/02/16 09:16:44;;;;;;;9.68;5.30;;;15.60;50.20;;;8.73;56.18;96691.94;4973878;28;20072;-47
2023/02/16 09:19:19;;;;;;;8.02;4.68;;;15.80;49.20;;;9.00;55.85;96692.38;4983994;28;20034;-53
2023/02/16 09:21:49;;;;;;;8.90;5.13;;;16.10;48.50;;;9.32;56.25;96698.22;4990111;28;20018;-47
2023/02/16 09:24:24;;;;;;;6.82;4.97;;;16.30;48.20;;;9.57;53.99;96698.00;4999047;28;20116;-47
2023/02/16 09:26:52;;;;;;;7.28;5.10;;;16.60;47.60;;;9.81;53.26;96700.66;4997982;28;20064;-50
2023/02/16 09:29:18;;;;;;;7.82;5.45;;;16.90;47.20;;;9.96;52.57;96693.84;4984102;28;20044;-47
2023/02/16 09:31:44;;;;;;;8.70;5.40;;;17.20;46.90;;;10.11;52.61;96688.00;4985409;28;20029;-51
2023/02/16 09:34:22;;;;;;;8.65;6.18;;;17.50;46.50;;;10.38;52.21;96699.00;4982125;28;20391;-49
2023/02/16 09:36:50;;;;;;;10.18;5.78;;;17.80;45.80;;;10.53;52.08;96690.50;5004232;28;20040;-53
2023/02/16 09:39:17;;;;;;;8.68;5.85;;;18.00;45.60;;;10.55;50.93;96690.25;4986713;28;20033;-54
2023/02/16 09:42:32;;;;;;;9.38;6.38;;;18.20;45.00;;;10.79;50.85;96702.44;5003560;28;20108;-50
2023/02/16 09:45:14;;;;;;;10.07;5.95;;;18.40;44.20;;;11.06;49.52;96693.84;4978725;28;20650;-48
2023/02/16 09:47:49;;;;;;;9.00;6.30;;;18.70;43.80;;;11.37;49.61;96689.81;5004104;28;20461;-50
2023/02/16 09:50:33;;;;;;;9.30;6.47;;;18.80;43.40;;;11.70;48.82;96691.69;4985438;28;20041;-46
2023/02/16 09:53:13;;;;;;;8.50;7.05;;;19.00;43.10;;;11.82;47.86;96692.41;4999935;28;20041;-52
2023/02/16 09:56:31;;;;;;;8.88;6.38;;;19.30;42.60;;;11.52;48.27;96691.94;4979786;28;20044;-51
2023/02/16 09:59:34;;;;;;;9.85;7.00;;;19.50;42.00;;;11.22;48.15;96687.75;4999581;28;20030;-51
2023/02/16 10:02:33;;;;;;;9.73;6.93;;;19.60;41.50;;;11.63;47.53;96691.06;4998646;28;20113;-48
2023/02/16 10:05:31;;;;;;;8.45;6.10;;;19.80;41.20;;;11.87;46.59;96691.69;5004286;28;20088;-46
2023/02/16 10:08:26;;;;;;;9.55;6.47;;;19.90;40.80;;;12.02;46.37;96688.41;4996597;28;20071;-53
2023/02/16 10:11:04;;;;;;;11.90;7.20;;;20.10;40.30;;;12.23;46.13;96692.19;4987883;28;20029;-49
2023/02/16 10:13:56;;;;;;;10.60;7.40;;;20.30;40.00;;;12.67;45.93;96692.16;4999712;28;20049;-46
2023/02/16 10:16:33;;;;;;;10.40;7.35;;;20.50;39.60;;;12.60;45.14;96689.69;5002177;28;20025;-49
2023/02/16 10:19:27;;;;;;;8.43;6.88;;;20.70;39.30;;;12.75;45.37;96691.69;5000933;28;20048;-47
2023/02/16 10:22:03;;;;;;;10.15;7.20;;;20.80;38.90;;;12.95;45.06;96699.16;4999881;28;20033;-49
2023/02/16 10:25:05;;;;;;;14.02;7.85;;;21.00;38.60;;;13.09;44.35;96689.66;5001623;28;20040;-51
2023/02/16 10:27:42;;;;;;;14.48;8.75;;;21.20;38.20;;;13.30;43.82;96692.53;4975726;28;20029;-54
2023/02/16 10:30:31;;;;;;;10.70;8.32;;;21.40;37.70;;;13.46;43.32;96693.47;4988082;28;20029;-50
2023/02/16 10:33:42;;;;;;;10.43;8.60;;;21.60;37.60;;;13.72;42.90;96691.78;4985827;28;20026;-54
2023/02/16 10:36:56;;;;;;;10.13;7.90;;;21.80;37.40;;;13.99;42.56;96684.47;4994695;28;20033;-47
2023/02/16 10:40:20;;;;;;;9.40;7.35;;;22.10;37.00;;;14.03;40.75;96680.19;4968815;28;20040;-49
2023/02/16 10:43:18;;;;;;;10.13;8.00;;;22.40;36.40;;;14.27;40.18;96680.59;4971967;28;20041;-49
2023/02/16 10:45:59;;;;;;;14.98;8.60;;;22.60;36.00;;;14.56;39.92;96669.47;4976339;28;20037;-51
2023/02/16 10:48:26;;;;;;;13.02;8.90;;;22.80;35.30;;;14.86;39.76;96678.69;5002118;28;20099;-50
2023/02/16 10:51:17;;;;;;;13.73;8.63;;;22.90;35.40;;;14.91;39.06;96674.13;4978901;28;20037;-48
2023/02/16 10:53:55;;;;;;;11.27;8.65;;;23.10;34.70;;;15.18;39.14;96667.75;4986162;28;20022;-47
2023/02/16 10:56:59;;;;;;;13.43;9.57;;;23.30;34.70;;;15.22;39.24;96668.81;4988711;28;20080;-47
2023/02/16 10:59:39;;;;;;;14.50;8.82;;;23.40;33.80;;;15.28;39.17;96662.38;4960843;28;20034;-50
2023/02/16 11:02:48;;;;;;;14.35;9.43;;;23.60;33.00;;;15.30;37.80;96665.59;4988078;28;20033;-50
2023/02/16 11:05:37;;;;;;;13.73;9.60;;;23.70;32.80;;;15.36;37.73;96661.84;4971299;28;20491;-53
2023/02/16 11:08:11;;;;;;;13.45;10.20;;;23.90;32.60;;;15.41;37.63;96661.03;4944121;28;20045;-47
2023/02/16 11:10:55;;;;;;;16.38;11.02;;;24.10;32.50;;;15.67;37.03;96659.97;4986949;28;20049;-47
2023/02/16 11:13:33;;;;;;;17.35;10.88;;;24.20;31.80;;;15.98;36.88;96659.91;4988781;28;20041;-47
2023/02/16 11:16:20;;;;;;;14.07;10.48;;;24.30;31.40;;;16.25;35.90;96650.69;4988577;28;20492;-47
2023/02/16 11:18:59;;;;;;;16.67;10.50;;;24.50;31.20;;;16.17;35.78;96652.09;4988221;28;20083;-52
2023/02/16 11:21:54;;;;;;;16.40;11.35;;;24.80;30.90;;;15.86;35.67;96654.03;4973040;28;20510;-47
2023/02/16 11:24:38;;;;;;;18.17;11.85;;;25.00;30.60;;;16.14;36.19;96650.75;4987743;28;20029;-47
2023/02/16 11:27:17;;;;;;;15.50;10.45;;;25.00;30.20;;;16.56;35.86;96638.72;4988483;28;20108;-51
2023/02/16 11:29:43;;;;;;;20.02;12.10;;;25.20;30.00;;;16.66;35.17;96641.34;4985892;28;20387;-51
2023/02/16 11:32:14;;;;;;;15.23;10.85;;;25.40;30.00;;;16.72;35.33;96638.66;4986047;28;20498;-49